sensor_id;sensor_type;location;lat;lon;timestamp;pressure;altitude;pressure_sealevel;temperature;humidity
53647;BME280;39550;52.230;5.194;2023-04-25T00:00:25;100911.97;;;8.57;77.35
53647;BME280;39550;52.230;5.194;2023-04-25T00:02:50;100936.94;;;8.66;77.18
53647;BME280;39550;52.230;5.194;2023-04-25T00:05:16;100959.53;;;8.85;77.34
53647;BME280;39550;52.230;5.194;2023-04-25T00:07:41;100954.34;;;8.82;77.26
53647;BME280;39550;52.230;5.194;2023-04-25T00:10:08;100959.44;;;8.79;76.77
53647;BME280;39550;52.230;5.194;2023-04-25T00:12:34;100937.00;;;8.69;77.60
53647;BME280;39550;52.230;5.194;2023-04-25T00:14:59;100930.03;;;8.62;77.20
53647;BME280;39550;52.230;5.194;2023-04-25T00:17:25;100922.28;;;8.60;77.39
53647;BME280;39550;52.230;5.194;2023-04-25T00:19:50;100927.44;;;8.62;77.04
53647;BME280;39550;52.230;5.194;2023-04-25T00:22:16;100961.09;;;8.77;77.05
53647;BME280;39550;52.230;5.194;2023-04-25T00:24:42;100985.34;;;8.92;77.71
53647;BME280;39550;52.230;5.194;2023-04-25T00:27:07;100993.06;;;8.92;77.16
53647;BME280;39550;52.230;5.194;2023-04-25T00:29:33;100936.81;;;8.60;76.85
53647;BME280;39550;52.230;5.194;2023-04-25T00:31:59;100925.56;;;8.51;77.16
53647;BME280;39550;52.230;5.194;2023-04-25T00:34:24;100989.59;;;8.90;77.46
53647;BME280;39550;52.230;5.194;2023-04-25T00:36:50;100970.53;;;8.77;77.38
53647;BME280;39550;52.230;5.194;2023-04-25T00:39:15;100929.78;;;8.48;77.38
53647;BME280;39550;52.230;5.194;2023-04-25T00:41:40;100980.81;;;8.77;77.00
53647;BME280;39550;52.230;5.194;2023-04-25T00:44:08;100969.56;;;8.70;77.19
53647;BME280;39550;52.230;5.194;2023-04-25T00:46:34;100955.66;;;8.59;77.19
53647;BME280;39550;52.230;5.194;2023-04-25T00:49:00;100885.56;;;8.17;77.04
53647;BME280;39550;52.230;5.194;2023-04-25T00:51:25;100944.44;;;8.54;77.08
53647;BME280;39550;52.230;5.194;2023-04-25T00:53:51;100998.03;;;8.82;76.92
53647;BME280;39550;52.230;5.194;2023-04-25T00:56:17;100993.69;;;8.78;76.97
53647;BME280;39550;52.230;5.194;2023-04-25T00:58:43;100986.72;;;8.71;76.99
53647;BME280;39550;52.230;5.194;2023-04-25T01:01:08;100942.66;;;8.49;77.15
53647;BME280;39550;52.230;5.194;2023-04-25T01:03:37;100981.50;;;8.68;76.80
53647;BME280;39550;52.230;5.194;2023-04-25T01:06:07;100979.84;;;8.70;77.25
53647;BME280;39550;52.230;5.194;2023-04-25T01:08:33;100957.28;;;8.54;77.36
53647;BME280;39550;52.230;5.194;2023-04-25T01:10:59;100943.34;;;8.42;77.44
53647;BME280;39550;52.230;5.194;2023-04-25T01:13:24;100958.06;;;8.49;77.00
53647;BME280;39550;52.230;5.194;2023-04-25T01:15:50;100964.91;;;8.49;77.34
53647;BME280;39550;52.230;5.194;2023-04-25T01:18:15;100977.91;;;8.60;77.08
53647;BME280;39550;52.230;5.194;2023-04-25T01:20:41;100957.88;;;8.42;77.31
53647;BME280;39550;52.230;5.194;2023-04-25T01:23:07;101000.25;;;8.64;77.21
53647;BME280;39550;52.230;5.194;2023-04-25T01:25:33;100943.91;;;8.27;77.01
53647;BME280;39550;52.230;5.194;2023-04-25T01:27:59;101020.16;;;8.74;76.79
53647;BME280;39550;52.230;5.194;2023-04-25T01:30:26;101017.53;;;8.71;77.11
53647;BME280;39550;52.230;5.194;2023-04-25T01:32:53;100978.66;;;8.52;77.11
53647;BME280;39550;52.230;5.194;2023-04-25T01:35:19;101005.34;;;8.61;76.94
53647;BME280;39550;52.230;5.194;2023-04-25T01:37:45;101016.63;;;8.69;77.05
53647;BME280;39550;52.230;5.194;2023-04-25T01:40:11;101022.59;;;8.68;77.13
53647;BME280;39550;52.230;5.194;2023-04-25T01:42:38;101017.47;;;8.68;76.78
53647;BME280;39550;52.230;5.194;2023-04-25T01:45:04;101007.09;;;8.62;77.22
53647;BME280;39550;52.230;5.194;2023-04-25T01:47:30;101026.03;;;8.67;77.28
53647;BME280;39550;52.230;5.194;2023-04-25T01:49:56;100999.19;;;8.52;76.73
53647;BME280;39550;52.230;5.194;2023-04-25T01:52:21;100994.78;;;8.45;77.18
53647;BME280;39550;52.230;5.194;2023-04-25T01:54:47;101014.69;;;8.56;76.82
53647;BME280;39550;52.230;5.194;2023-04-25T01:57:13;101025.13;;;8.65;77.49
53647;BME280;39550;52.230;5.194;2023-04-25T01:59:39;101031.09;;;8.64;76.95
53647;BME280;39550;52.230;5.194;2023-04-25T02:02:05;101025.84;;;8.58;76.95
53647;BME280;39550;52.230;5.194;2023-04-25T02:04:31;101031.03;;;8.61;76.61
53647;BME280;39550;52.230;5.194;2023-04-25T02:06:56;101024.06;;;8.55;76.77
53647;BME280;39550;52.230;5.194;2023-04-25T02:09:22;101012.78;;;8.47;76.75
53647;BME280;39550;52.230;5.194;2023-04-25T02:11:47;101008.44;;;8.44;77.11
53647;BME280;39550;52.230;5.194;2023-04-25T02:14:13;101029.19;;;8.54;76.92
53647;BME280;39550;52.230;5.194;2023-04-25T02:16:38;101027.44;;;8.51;76.92
53647;BME280;39550;52.230;5.194;2023-04-25T02:19:04;100978.00;;;8.20;76.85
53647;BME280;39550;52.230;5.194;2023-04-25T02:21:30;101036.91;;;8.55;76.89
53647;BME280;39550;52.230;5.194;2023-04-25T02:23:55;101032.66;;;8.56;76.81
53647;BME280;39550;52.230;5.194;2023-04-25T02:26:21;100992.69;;;8.27;76.89
53647;BME280;39550;52.230;5.194;2023-04-25T02:28:46;101025.66;;;8.48;77.04
53647;BME280;39550;52.230;5.194;2023-04-25T02:31:11;101004.84;;;8.36;76.84
53647;BME280;39550;52.230;5.194;2023-04-25T02:33:37;101017.00;;;8.43;76.96
53647;BME280;39550;52.230;5.194;2023-04-25T02:36:02;101025.59;;;8.45;77.05
53647;BME280;39550;52.230;5.194;2023-04-25T02:38:28;101041.19;;;8.55;76.58
53647;BME280;39550;52.230;5.194;2023-04-25T02:40:53;101043.75;;;8.53;77.02
53647;BME280;39550;52.230;5.194;2023-04-25T02:43:19;101047.94;;;8.49;76.73
53647;BME280;39550;52.230;5.194;2023-04-25T02:45:45;101041.06;;;8.48;76.95
53647;BME280;39550;52.230;5.194;2023-04-25T02:48:10;101025.53;;;8.42;77.16
53647;BME280;39550;52.230;5.194;2023-04-25T02:50:36;101036.81;;;8.49;76.85
53647;BME280;39550;52.230;5.194;2023-04-25T02:53:01;101039.34;;;8.47;76.83
53647;BME280;39550;52.230;5.194;2023-04-25T02:55:26;101053.13;;;8.52;76.55
53647;BME280;39550;52.230;5.194;2023-04-25T02:57:52;101017.59;;;8.31;76.92
53647;BME280;39550;52.230;5.194;2023-04-25T03:00:17;101042.53;;;8.37;76.87
53647;BME280;39550;52.230;5.194;2023-04-25T03:02:42;101032.31;;;8.40;76.91
53647;BME280;39550;52.230;5.194;2023-04-25T03:05:08;101048.66;;;8.44;77.05
53647;BME280;39550;52.230;5.194;2023-04-25T03:07:33;101020.84;;;8.23;77.07
53647;BME280;39550;52.230;5.194;2023-04-25T03:09:59;101066.75;;;8.48;76.62
53647;BME280;39550;52.230;5.194;2023-04-25T03:12:24;101039.91;;;8.34;76.92
53647;BME280;39550;52.230;5.194;2023-04-25T03:14:50;101047.66;;;8.37;77.08
53647;BME280;39550;52.230;5.194;2023-04-25T03:17:15;101043.31;;;8.34;76.54
53647;BME280;39550;52.230;5.194;2023-04-25T03:19:41;101058.00;;;8.40;76.43
53647;BME280;39550;52.230;5.194;2023-04-25T03:22:06;101063.16;;;8.42;76.62
53647;BME280;39550;52.230;5.194;2023-04-25T03:24:31;101054.50;;;8.35;76.57
53647;BME280;39550;52.230;5.194;2023-04-25T03:26:57;101051.91;;;8.35;76.87
53647;BME280;39550;52.230;5.194;2023-04-25T03:29:22;101047.41;;;8.25;76.96
53647;BME280;39550;52.230;5.194;2023-04-25T03:31:49;101083.75;;;8.43;76.50
53647;BME280;39550;52.230;5.194;2023-04-25T03:34:15;101064.75;;;8.35;76.80
53647;BME280;39550;52.230;5.194;2023-04-25T03:36:40;101054.34;;;8.29;76.45
53647;BME280;39550;52.230;5.194;2023-04-25T03:39:05;101064.66;;;8.32;76.84
53647;BME280;39550;52.230;5.194;2023-04-25T03:41:31;101069.00;;;8.34;76.78
53647;BME280;39550;52.230;5.194;2023-04-25T03:43:56;101068.16;;;8.34;76.92
53647;BME280;39550;52.230;5.194;2023-04-25T03:46:21;101070.66;;;8.31;76.76
53647;BME280;39550;52.230;5.194;2023-04-25T03:48:47;101076.69;;;8.33;76.71
53647;BME280;39550;52.230;5.194;2023-04-25T03:51:12;101066.22;;;8.24;76.65
53647;BME280;39550;52.230;5.194;2023-04-25T03:53:38;101086.16;;;8.35;76.49
53647;BME280;39550;52.230;5.194;2023-04-25T03:56:03;101086.94;;;8.33;76.28
53647;BME280;39550;52.230;5.194;2023-04-25T03:58:28;101008.06;;;7.84;76.68
53647;BME280;39550;52.230;5.194;2023-04-25T04:00:54;101086.91;;;8.30;76.93
53647;BME280;39550;52.230;5.194;2023-04-25T04:03:19;101056.59;;;8.13;76.52
53647;BME280;39550;52.230;5.194;2023-04-25T04:05:45;101089.53;;;8.33;76.79
53647;BME280;39550;52.230;5.194;2023-04-25T04:08:11;101092.03;;;8.30;76.79
53647;BME280;39550;52.230;5.194;2023-04-25T04:10:36;101092.88;;;8.30;76.51
53647;BME280;39550;52.230;5.194;2023-04-25T04:13:02;101100.63;;;8.32;76.57
53647;BME280;39550;52.230;5.194;2023-04-25T04:15:27;101082.47;;;8.23;76.57
53647;BME280;39550;52.230;5.194;2023-04-25T04:17:52;101107.47;;;8.31;76.49
53647;BME280;39550;52.230;5.194;2023-04-25T04:20:19;101094.38;;;8.21;76.32
53647;BME280;39550;52.230;5.194;2023-04-25T04:22:44;101100.44;;;8.23;76.71
53647;BME280;39550;52.230;5.194;2023-04-25T04:25:09;101086.59;;;8.16;76.93
53647;BME280;39550;52.230;5.194;2023-04-25T04:27:36;101111.66;;;8.28;76.35
53647;BME280;39550;52.230;5.194;2023-04-25T04:30:03;101080.53;;;8.12;76.35
53647;BME280;39550;52.230;5.194;2023-04-25T04:32:28;100978.38;;;7.55;76.21
53647;BME280;39550;52.230;5.194;2023-04-25T04:34:55;101104.84;;;8.28;76.58
53647;BME280;39550;52.230;5.194;2023-04-25T04:37:21;101109.09;;;8.28;76.80
53647;BME280;39550;52.230;5.194;2023-04-25T04:39:47;101047.28;;;7.79;76.53
53647;BME280;39550;52.230;5.194;2023-04-25T04:42:12;101122.66;;;8.22;76.45
53647;BME280;39550;52.230;5.194;2023-04-25T04:44:38;101044.69;;;7.77;76.69
53647;BME280;39550;52.230;5.194;2023-04-25T04:47:04;101134.66;;;8.23;76.06
53647;BME280;39550;52.230;5.194;2023-04-25T04:49:31;101120.81;;;8.16;76.69
53647;BME280;39550;52.230;5.194;2023-04-25T04:51:57;101124.28;;;8.17;76.62
53647;BME280;39550;52.230;5.194;2023-04-25T04:54:22;101116.47;;;8.12;76.11
53647;BME280;39550;52.230;5.194;2023-04-25T04:56:47;101140.66;;;8.24;76.03
53647;BME280;39550;52.230;5.194;2023-04-25T04:59:13;101062.50;;;7.71;76.55
53647;BME280;39550;52.230;5.194;2023-04-25T05:01:38;101132.81;;;8.16;76.50
53647;BME280;39550;52.230;5.194;2023-04-25T05:04:04;101146.66;;;8.23;76.32
53647;BME280;39550;52.230;5.194;2023-04-25T05:06:29;101140.59;;;8.21;76.09
53647;BME280;39550;52.230;5.194;2023-04-25T05:08:56;101151.78;;;8.23;76.34
53647;BME280;39550;52.230;5.194;2023-04-25T05:11:23;101082.34;;;7.78;76.02
53647;BME280;39550;52.230;5.194;2023-04-25T05:13:51;101129.16;;;8.06;76.21
53647;BME280;39550;52.230;5.194;2023-04-25T05:16:16;101094.41;;;7.82;76.38
53647;BME280;39550;52.230;5.194;2023-04-25T05:18:41;101134.31;;;8.06;76.21
53647;BME280;39550;52.230;5.194;2023-04-25T05:21:07;101155.09;;;8.17;76.60
53647;BME280;39550;52.230;5.194;2023-04-25T05:23:32;101146.38;;;8.10;76.07
53647;BME280;39550;52.230;5.194;2023-04-25T05:25:58;101171.47;;;8.24;75.79
53647;BME280;39550;52.230;5.194;2023-04-25T05:28:24;101110.66;;;7.83;76.07
53647;BME280;39550;52.230;5.194;2023-04-25T05:30:49;101166.09;;;8.11;76.21
53647;BME280;39550;52.230;5.194;2023-04-25T05:33:15;101178.31;;;8.23;75.67
53647;BME280;39550;52.230;5.194;2023-04-25T05:35:41;101178.31;;;8.23;75.89
53647;BME280;39550;52.230;5.194;2023-04-25T05:38:06;101161.84;;;8.13;75.75
53647;BME280;39550;52.230;5.194;2023-04-25T05:40:31;101150.59;;;8.08;76.08
53647;BME280;39550;52.230;5.194;2023-04-25T05:42:57;101106.19;;;7.74;75.61
53647;BME280;39550;52.230;5.194;2023-04-25T05:45:22;101160.00;;;8.08;75.84
53647;BME280;39550;52.230;5.194;2023-04-25T05:47:48;101096.56;;;7.65;75.78
53647;BME280;39550;52.230;5.194;2023-04-25T05:50:13;101175.56;;;8.15;75.27
53647;BME280;39550;52.230;5.194;2023-04-25T05:52:38;101180.63;;;8.12;75.21
53647;BME280;39550;52.230;5.194;2023-04-25T05:55:04;101208.28;;;8.23;74.63
53647;BME280;39550;52.230;5.194;2023-04-25T05:57:30;101194.38;;;8.14;75.63
53647;BME280;39550;52.230;5.194;2023-04-25T05:59:56;101183.88;;;8.05;75.38
53647;BME280;39550;52.230;5.194;2023-04-25T06:02:21;101184.88;;;8.10;75.26
53647;BME280;39550;52.230;5.194;2023-04-25T06:04:49;101064.19;;;7.34;75.37
53647;BME280;39550;52.230;5.194;2023-04-25T06:07:14;101083.81;;;7.33;74.88
53647;BME280;39550;52.230;5.194;2023-04-25T06:09:40;101112.53;;;7.54;75.54
53647;BME280;39550;52.230;5.194;2023-04-25T06:12:06;101220.81;;;8.10;75.46
53647;BME280;39550;52.230;5.194;2023-04-25T06:14:32;101214.69;;;8.05;74.97
53647;BME280;39550;52.230;5.194;2023-04-25T06:16:57;101225.03;;;8.08;75.22
53647;BME280;39550;52.230;5.194;2023-04-25T06:19:22;101236.34;;;8.16;75.03
53647;BME280;39550;52.230;5.194;2023-04-25T06:21:48;101219.81;;;8.05;75.60
53647;BME280;39550;52.230;5.194;2023-04-25T06:24:13;101216.28;;;8.00;74.88
53647;BME280;39550;52.230;5.194;2023-04-25T06:26:38;101238.84;;;8.13;75.74
53647;BME280;39550;52.230;5.194;2023-04-25T06:29:04;101235.47;;;8.14;75.10
53647;BME280;39550;52.230;5.194;2023-04-25T06:31:29;101212.88;;;8.01;75.44
53647;BME280;39550;52.230;5.194;2023-04-25T06:33:57;101218.06;;;8.04;75.29
53647;BME280;39550;52.230;5.194;2023-04-25T06:36:22;101237.09;;;8.12;74.89
53647;BME280;39550;52.230;5.194;2023-04-25T06:38:50;101241.44;;;8.15;74.93
53647;BME280;39550;52.230;5.194;2023-04-25T06:41:16;101240.66;;;8.17;75.03
53647;BME280;39550;52.230;5.194;2023-04-25T06:43:41;101249.19;;;8.16;75.33
53647;BME280;39550;52.230;5.194;2023-04-25T06:46:06;101251.88;;;8.21;74.99
53647;BME280;39550;52.230;5.194;2023-04-25T06:48:32;101262.19;;;8.23;75.20
53647;BME280;39550;52.230;5.194;2023-04-25T06:50:57;101238.56;;;8.02;75.19
53647;BME280;39550;52.230;5.194;2023-04-25T06:53:22;101165.72;;;7.61;75.04
53647;BME280;39550;52.230;5.194;2023-04-25T06:55:48;101238.78;;;8.10;75.08
53647;BME280;39550;52.230;5.194;2023-04-25T06:58:13;101259.63;;;8.23;75.11
53647;BME280;39550;52.230;5.194;2023-04-25T07:00:38;101218.94;;;8.03;74.90
53647;BME280;39550;52.230;5.194;2023-04-25T07:03:04;101257.88;;;8.22;75.11
53647;BME280;39550;52.230;5.194;2023-04-25T07:05:29;101252.66;;;8.18;74.75
53647;BME280;39550;52.230;5.194;2023-04-25T07:07:54;101249.22;;;8.18;74.71
53647;BME280;39550;52.230;5.194;2023-04-25T07:10:20;101256.13;;;8.21;74.65
53647;BME280;39550;52.230;5.194;2023-04-25T07:12:46;101270.03;;;8.29;74.50
53647;BME280;39550;52.230;5.194;2023-04-25T07:15:11;101243.91;;;8.10;75.02
53647;BME280;39550;52.230;5.194;2023-04-25T07:17:37;101208.47;;;7.95;74.73
53647;BME280;39550;52.230;5.194;2023-04-25T07:20:06;101147.66;;;7.56;74.65
53647;BME280;39550;52.230;5.194;2023-04-25T07:22:32;101239.31;;;7.98;74.47
53647;BME280;39550;52.230;5.194;2023-04-25T07:24:58;101245.50;;;8.05;74.13
53647;BME280;39550;52.230;5.194;2023-04-25T07:27:23;101179.47;;;7.63;74.43
53647;BME280;39550;52.230;5.194;2023-04-25T07:29:48;101142.22;;;7.44;74.48
53647;BME280;39550;52.230;5.194;2023-04-25T07:32:14;101186.41;;;7.67;74.19
53647;BME280;39550;52.230;5.194;2023-04-25T07:34:39;101292.34;;;8.31;74.66
53647;BME280;39550;52.230;5.194;2023-04-25T07:37:05;101294.84;;;8.28;74.59
53647;BME280;39550;52.230;5.194;2023-04-25T07:39:31;101286.88;;;8.17;74.18
53647;BME280;39550;52.230;5.194;2023-04-25T07:41:56;101125.38;;;7.20;74.32
53647;BME280;39550;52.230;5.194;2023-04-25T07:44:24;101305.91;;;8.26;75.06
53647;BME280;39550;52.230;5.194;2023-04-25T07:46:49;101296.28;;;8.17;74.84
53647;BME280;39550;52.230;5.194;2023-04-25T07:49:15;101163.44;;;7.38;74.64
53647;BME280;39550;52.230;5.194;2023-04-25T07:51:41;101146.25;;;7.34;74.08
53647;BME280;39550;52.230;5.194;2023-04-25T07:54:08;101237.16;;;7.80;74.53
53647;BME280;39550;52.230;5.194;2023-04-25T07:56:33;101263.16;;;7.93;74.83
53647;BME280;39550;52.230;5.194;2023-04-25T07:58:59;101316.09;;;8.23;74.15
53647;BME280;39550;52.230;5.194;2023-04-25T08:01:25;101332.47;;;8.28;74.84
53647;BME280;39550;52.230;5.194;2023-04-25T08:03:52;101327.25;;;8.25;74.55
53647;BME280;39550;52.230;5.194;2023-04-25T08:06:17;101335.75;;;8.22;74.13
53647;BME280;39550;52.230;5.194;2023-04-25T08:08:42;101317.59;;;8.14;73.80
53647;BME280;39550;52.230;5.194;2023-04-25T08:11:08;101317.66;;;8.17;74.08
53647;BME280;39550;52.230;5.194;2023-04-25T08:13:33;101336.72;;;8.26;73.48
53647;BME280;39550;52.230;5.194;2023-04-25T08:15:58;101316.63;;;8.11;74.11
53647;BME280;39550;52.230;5.194;2023-04-25T08:18:24;101355.69;;;8.31;73.64
53647;BME280;39550;52.230;5.194;2023-04-25T08:20:49;101342.72;;;8.28;73.99
53647;BME280;39550;52.230;5.194;2023-04-25T08:23:14;101329.69;;;8.18;74.13
53647;BME280;39550;52.230;5.194;2023-04-25T08:25:40;101342.72;;;8.28;73.78
53647;BME280;39550;52.230;5.194;2023-04-25T08:28:05;101307.91;;;8.04;74.26
53647;BME280;39550;52.230;5.194;2023-04-25T08:30:31;101257.00;;;7.88;73.59
53647;BME280;39550;52.230;5.194;2023-04-25T08:32:56;101356.06;;;8.45;73.80
53647;BME280;39550;52.230;5.194;2023-04-25T08:35:23;101283.09;;;8.03;73.79
53647;BME280;39550;52.230;5.194;2023-04-25T08:37:48;101192.78;;;7.49;73.90
53647;BME280;39550;52.230;5.194;2023-04-25T08:40:15;101302.16;;;8.13;73.71
53647;BME280;39550;52.230;5.194;2023-04-25T08:42:44;101303.78;;;8.09;73.72
53647;BME280;39550;52.230;5.194;2023-04-25T08:45:10;101254.81;;;7.68;74.21
53647;BME280;39550;52.230;5.194;2023-04-25T08:47:37;101277.53;;;7.88;74.13
53647;BME280;39550;52.230;5.194;2023-04-25T08:50:04;101225.63;;;7.63;73.16
53647;BME280;39550;52.230;5.194;2023-04-25T08:52:35;101369.81;;;8.48;73.24
53647;BME280;39550;52.230;5.194;2023-04-25T08:55:01;101367.41;;;8.55;73.00
53647;BME280;39550;52.230;5.194;2023-04-25T08:57:28;101334.13;;;8.26;73.21
53647;BME280;39550;52.230;5.194;2023-04-25T08:59:54;101292.47;;;8.02;72.82
53647;BME280;39550;52.230;5.194;2023-04-25T09:02:21;101296.56;;;7.96;72.64
53647;BME280;39550;52.230;5.194;2023-04-25T09:04:47;101337.75;;;8.32;73.03
53647;BME280;39550;52.230;5.194;2023-04-25T09:07:13;101318.47;;;8.15;72.91
53647;BME280;39550;52.230;5.194;2023-04-25T09:09:43;101297.53;;;7.99;72.50
53647;BME280;39550;52.230;5.194;2023-04-25T09:12:09;101341.66;;;8.19;72.64
53647;BME280;39550;52.230;5.194;2023-04-25T09:14:35;101339.47;;;8.00;73.22
53647;BME280;39550;52.230;5.194;2023-04-25T09:17:03;101283.78;;;7.64;73.15
53647;BME280;39550;52.230;5.194;2023-04-25T09:19:34;101290.72;;;7.68;73.10
53647;BME280;39550;52.230;5.194;2023-04-25T09:22:02;101434.75;;;8.44;73.08
53647;BME280;39550;52.230;5.194;2023-04-25T09:24:39;101357.41;;;8.00;73.15
53647;BME280;39550;52.230;5.194;2023-04-25T09:27:08;101447.13;;;8.58;73.16
53647;BME280;39550;52.230;5.194;2023-04-25T09:29:35;101448.94;;;8.62;72.20
53647;BME280;39550;52.230;5.194;2023-04-25T09:34:46;101428.06;;;8.49;72.52
53647;BME280;39550;52.230;5.194;2023-04-25T09:37:23;101451.72;;;8.69;72.66
53647;BME280;39550;52.230;5.194;2023-04-25T09:39:52;101445.69;;;8.69;72.00
53647;BME280;39550;52.230;5.194;2023-04-25T09:42:21;101447.38;;;8.67;72.70
53647;BME280;39550;52.230;5.194;2023-04-25T09:44:47;101447.47;;;8.72;71.85
53647;BME280;39550;52.230;5.194;2023-04-25T09:47:14;101456.03;;;8.72;71.92
53647;BME280;39550;52.230;5.194;2023-04-25T09:49:42;101418.63;;;8.48;71.97
53647;BME280;39550;52.230;5.194;2023-04-25T09:52:08;101468.25;;;8.79;71.20
53647;BME280;39550;52.230;5.194;2023-04-25T09:54:34;101474.13;;;8.75;71.13
53647;BME280;39550;52.230;5.194;2023-04-25T09:57:24;101484.63;;;8.84;71.21
53647;BME280;39550;52.230;5.194;2023-04-25T09:59:54;101483.72;;;8.82;70.31
53647;BME280;39550;52.230;5.194;2023-04-25T10:02:24;101462.06;;;8.73;70.45
53647;BME280;39550;52.230;5.194;2023-04-25T10:04:54;101453.34;;;8.66;71.20
53647;BME280;39550;52.230;5.194;2023-04-25T10:07:22;101418.72;;;8.51;71.05
53647;BME280;39550;52.230;5.194;2023-04-25T10:10:03;101402.31;;;8.46;71.30
53647;BME280;39550;52.230;5.194;2023-04-25T10:12:30;101444.13;;;8.74;70.89
53647;BME280;39550;52.230;5.194;2023-04-25T10:14:58;101477.94;;;8.91;70.47
53647;BME280;39550;52.230;5.194;2023-04-25T10:17:26;101475.41;;;8.93;70.38
53647;BME280;39550;52.230;5.194;2023-04-25T10:19:54;101445.75;;;8.72;70.28
53647;BME280;39550;52.230;5.194;2023-04-25T10:24:54;101410.91;;;8.48;69.52
53647;BME280;39550;52.230;5.194;2023-04-25T10:27:21;101476.28;;;8.93;70.39
53647;BME280;39550;52.230;5.194;2023-04-25T10:30:00;101362.78;;;8.41;70.25
53647;BME280;39550;52.230;5.194;2023-04-25T10:32:26;101386.81;;;8.43;70.23
53647;BME280;39550;52.230;5.194;2023-04-25T10:34:51;101355.84;;;8.39;69.89
53647;BME280;39550;52.230;5.194;2023-04-25T10:37:18;101481.84;;;9.10;69.97
53647;BME280;39550;52.230;5.194;2023-04-25T10:39:44;101451.72;;;8.69;69.77
53647;BME280;39550;52.230;5.194;2023-04-25T10:42:11;101464.56;;;8.69;70.12
53647;BME280;39550;52.230;5.194;2023-04-25T10:44:37;101464.44;;;8.65;70.00
53647;BME280;39550;52.230;5.194;2023-04-25T10:47:06;101460.88;;;8.60;70.14
53647;BME280;39550;52.230;5.194;2023-04-25T10:49:36;101514.72;;;8.89;70.60
53647;BME280;39550;52.230;5.194;2023-04-25T10:54:46;101463.84;;;8.43;71.23
53647;BME280;39550;52.230;5.194;2023-04-25T10:57:45;101527.91;;;8.69;70.86
53647;BME280;39550;52.230;5.194;2023-04-25T11:00:19;101526.34;;;8.74;71.55
53647;BME280;39550;52.230;5.194;2023-04-25T11:02:51;101492.63;;;8.62;71.66
53647;BME280;39550;52.230;5.194;2023-04-25T11:05:23;101465.56;;;8.44;71.32
53647;BME280;39550;52.230;5.194;2023-04-25T11:07:54;101523.03;;;8.78;71.44
53647;BME280;39550;52.230;5.194;2023-04-25T11:10:29;101461.34;;;8.45;70.58
53647;BME280;39550;52.230;5.194;2023-04-25T11:12:54;101515.63;;;8.91;70.35
53647;BME280;39550;52.230;5.194;2023-04-25T11:15:20;101452.25;;;8.58;70.52
53647;BME280;39550;52.230;5.194;2023-04-25T11:17:45;101497.66;;;8.91;70.93
53647;BME280;39550;52.230;5.194;2023-04-25T11:20:12;101506.91;;;8.84;70.62
53647;BME280;39550;52.230;5.194;2023-04-25T11:22:39;101453.75;;;8.49;71.10
53647;BME280;39550;52.230;5.194;2023-04-25T11:25:08;101472.00;;;8.59;71.11
53647;BME280;39550;52.230;5.194;2023-04-25T11:27:37;101484.41;;;8.75;71.28
53647;BME280;39550;52.230;5.194;2023-04-25T11:30:15;101506.44;;;8.99;70.94
53647;BME280;39550;52.230;5.194;2023-04-25T11:32:41;101426.50;;;8.55;70.45
53647;BME280;39550;52.230;5.194;2023-04-25T11:35:07;101511.09;;;9.14;69.81
53647;BME280;39550;52.230;5.194;2023-04-25T11:37:33;101485.78;;;8.96;69.72
53647;BME280;39550;52.230;5.194;2023-04-25T11:39:59;101525.59;;;9.12;69.18
53647;BME280;39550;52.230;5.194;2023-04-25T11:42:25;101491.25;;;8.76;68.92
53647;BME280;39550;52.230;5.194;2023-04-25T11:44:51;101534.63;;;8.96;69.34
53647;BME280;39550;52.230;5.194;2023-04-25T11:47:16;101557.66;;;8.93;69.45
53647;BME280;39550;52.230;5.194;2023-04-25T11:49:41;101556.84;;;8.94;69.68
53647;BME280;39550;52.230;5.194;2023-04-25T11:52:07;101481.38;;;8.58;69.69
53647;BME280;39550;52.230;5.194;2023-04-25T11:54:35;101509.34;;;8.79;70.09
53647;BME280;39550;52.230;5.194;2023-04-25T11:57:01;101519.78;;;8.85;70.24
53647;BME280;39550;52.230;5.194;2023-04-25T11:59:26;101539.84;;;8.99;69.68
53647;BME280;39550;52.230;5.194;2023-04-25T12:01:52;101490.31;;;8.71;69.73
53647;BME280;39550;52.230;5.194;2023-04-25T12:04:19;101458.03;;;8.49;70.16
53647;BME280;39550;52.230;5.194;2023-04-25T12:06:46;101548.69;;;9.10;69.41
53647;BME280;39550;52.230;5.194;2023-04-25T12:09:14;101454.84;;;8.58;69.74
53647;BME280;39550;52.230;5.194;2023-04-25T12:11:41;101530.06;;;9.20;69.37
53647;BME280;39550;52.230;5.194;2023-04-25T12:14:07;101538.75;;;9.24;69.08
53647;BME280;39550;52.230;5.194;2023-04-25T12:16:55;101541.72;;;9.41;68.15
53647;BME280;39550;52.230;5.194;2023-04-25T12:19:21;101526.84;;;9.28;68.29
53647;BME280;39550;52.230;5.194;2023-04-25T12:21:47;101522.47;;;9.24;68.46
53647;BME280;39550;52.230;5.194;2023-04-25T12:24:18;101542.84;;;9.52;68.28
53647;BME280;39550;52.230;5.194;2023-04-25T12:26:59;101533.84;;;9.33;67.27
53647;BME280;39550;52.230;5.194;2023-04-25T12:29:27;101496.56;;;9.17;67.62
53647;BME280;39550;52.230;5.194;2023-04-25T12:31:53;101487.75;;;9.06;68.37
53647;BME280;39550;52.230;5.194;2023-04-25T12:34:20;101508.59;;;9.55;67.12
53647;BME280;39550;52.230;5.194;2023-04-25T12:36:46;101548.28;;;10.03;65.53
53647;BME280;39550;52.230;5.194;2023-04-25T12:39:19;101469.34;;;9.26;66.45
53647;BME280;39550;52.230;5.194;2023-04-25T12:41:45;101549.44;;;9.41;66.94
53647;BME280;39550;52.230;5.194;2023-04-25T12:44:11;101482.09;;;8.86;68.59
53647;BME280;39550;52.230;5.194;2023-04-25T12:46:37;101504.44;;;8.89;68.68
53647;BME280;39550;52.230;5.194;2023-04-25T12:49:03;101482.31;;;9.30;67.21
53647;BME280;39550;52.230;5.194;2023-04-25T12:51:29;101479.69;;;9.29;65.92
53647;BME280;39550;52.230;5.194;2023-04-25T12:53:54;101456.78;;;9.38;65.61
53647;BME280;39550;52.230;5.194;2023-04-25T12:56:20;101538.94;;;10.08;64.61
53647;BME280;39550;52.230;5.194;2023-04-25T12:58:45;101493.38;;;10.04;63.86
53647;BME280;39550;52.230;5.194;2023-04-25T13:01:11;101450.47;;;9.65;64.03
53647;BME280;39550;52.230;5.194;2023-04-25T13:03:38;101555.88;;;10.38;64.24